createdAt,value
2018-12-31T15:50:06.599Z,13.00
2018-12-31T15:52:37.258Z,13.30
2018-12-31T15:55:07.725Z,13.32
2018-12-31T15:57:38.406Z,13.00
2018-12-31T16:00:10.563Z,13.78
2018-12-31T16:02:40.768Z,14.15
2018-12-31T16:05:12.113Z,13.43
2018-12-31T16:07:45.919Z,14.45
2018-12-31T16:10:14.257Z,13.50
2018-12-31T16:12:44.999Z,13.93
2018-12-31T16:15:15.291Z,55.08
2018-12-31T16:17:45.492Z,22.20
2018-12-31T16:20:15.750Z,15.38
2018-12-31T16:22:46.187Z,22.27
2018-12-31T16:25:16.574Z,25.40
2018-12-31T16:27:46.921Z,19.62
2018-12-31T16:30:17.205Z,20.00
2018-12-31T16:32:47.437Z,17.67
2018-12-31T16:35:18.109Z,31.48
2018-12-31T16:37:48.368Z,23.00
2018-12-31T16:40:18.663Z,25.52
2018-12-31T16:42:48.819Z,22.32
2018-12-31T16:45:19.189Z,21.23
2018-12-31T16:47:49.626Z,21.20
2018-12-31T16:50:19.889Z,18.35
2018-12-31T16:52:50.099Z,19.12
2018-12-31T16:55:20.392Z,21.62
2018-12-31T16:57:50.781Z,26.68
2018-12-31T17:00:21.132Z,37.83
2018-12-31T17:02:51.354Z,27.58
2018-12-31T17:05:21.730Z,24.47
2018-12-31T17:07:51.895Z,21.62
2018-12-31T17:10:22.207Z,19.87
2018-12-31T17:12:52.518Z,23.35
2018-12-31T17:15:22.798Z,26.97
2018-12-31T17:17:53.103Z,31.90
2018-12-31T17:20:23.516Z,31.52
2018-12-31T17:22:54.169Z,30.43
2018-12-31T17:25:24.657Z,26.48
2018-12-31T17:27:54.869Z,28.07
2018-12-31T17:30:25.061Z,27.45
2018-12-31T17:32:55.271Z,30.52
2018-12-31T17:35:25.569Z,24.23
2018-12-31T17:37:56.678Z,21.35
2018-12-31T17:40:26.874Z,22.62
2018-12-31T17:42:57.085Z,22.10
2018-12-31T17:45:27.662Z,20.62
2018-12-31T17:47:58.206Z,20.10
2018-12-31T17:50:29.505Z,24.10
2018-12-31T17:53:01.552Z,22.75
2018-12-31T17:55:31.967Z,21.60
2018-12-31T17:58:02.233Z,24.30
2018-12-31T18:00:32.457Z,24.15
2018-12-31T18:03:02.611Z,20.30
2018-12-31T18:05:32.785Z,20.77
2018-12-31T18:08:02.915Z,20.32
2018-12-31T18:10:33.173Z,24.40
2018-12-31T18:13:03.375Z,27.35
2018-12-31T18:15:33.627Z,29.05
2018-12-31T18:18:03.800Z,29.25
2018-12-31T18:20:34.294Z,28.23
2018-12-31T18:23:04.447Z,30.12
2018-12-31T18:25:34.653Z,27.75
2018-12-31T18:28:04.845Z,28.17
2018-12-31T18:30:35.030Z,31.87
2018-12-31T18:33:05.221Z,25.17
2018-12-31T18:35:35.423Z,23.22
2018-12-31T18:38:05.583Z,22.35
2018-12-31T18:40:35.771Z,22.87
2018-12-31T18:43:06.317Z,22.25
2018-12-31T18:45:36.610Z,22.22
2018-12-31T18:48:06.906Z,23.73
2018-12-31T18:50:37.191Z,24.65
2018-12-31T18:53:08.357Z,24.25
2018-12-31T18:55:38.655Z,25.02
2018-12-31T18:58:08.812Z,29.98
2018-12-31T19:00:39.010Z,30.20
2018-12-31T19:03:09.223Z,27.90
2018-12-31T19:05:39.430Z,25.92
2018-12-31T19:08:09.653Z,24.80
2018-12-31T19:10:39.899Z,27.55
2018-12-31T19:13:10.048Z,26.02
2018-12-31T19:15:40.238Z,26.60
2018-12-31T19:18:10.830Z,26.48
2018-12-31T19:20:41.053Z,25.23
2018-12-31T19:23:11.232Z,25.37
2018-12-31T19:25:44.649Z,26.48
2018-12-31T19:28:14.910Z,26.82
2018-12-31T19:30:45.262Z,29.15
2018-12-31T19:33:15.446Z,29.90
2018-12-31T19:35:45.695Z,27.37
2018-12-31T19:38:15.893Z,30.70
2018-12-31T19:40:46.071Z,28.55
2018-12-31T19:43:16.321Z,25.00
2018-12-31T19:45:46.850Z,22.30
2018-12-31T19:48:17.055Z,19.48
2018-12-31T19:50:47.290Z,20.37
2018-12-31T19:53:17.630Z,20.85
2018-12-31T19:55:48.011Z,20.68
2018-12-31T19:58:18.273Z,22.85
2018-12-31T20:00:48.502Z,24.95
2018-12-31T20:03:18.670Z,30.10
2018-12-31T20:05:49.128Z,32.05
2018-12-31T20:08:19.272Z,34.08
2018-12-31T20:10:49.518Z,33.05
2018-12-31T20:13:19.813Z,37.90
2018-12-31T20:15:51.960Z,40.05
2018-12-31T20:18:21.817Z,42.95
2018-12-31T20:20:52.080Z,43.98
2018-12-31T20:23:22.242Z,42.67
2018-12-31T20:25:52.524Z,44.45
2018-12-31T20:28:22.695Z,33.63
2018-12-31T20:30:52.964Z,32.60
2018-12-31T20:33:23.215Z,35.58
2018-12-31T20:35:53.461Z,38.05
2018-12-31T20:38:23.693Z,37.90
2018-12-31T20:40:54.084Z,43.60
2018-12-31T20:43:24.258Z,53.05
2018-12-31T20:45:54.546Z,51.20
2018-12-31T20:48:24.751Z,34.95
2018-12-31T20:50:55.100Z,32.08
2018-12-31T20:53:25.709Z,29.67
2018-12-31T20:55:55.908Z,28.75
2018-12-31T20:58:26.141Z,29.10
2018-12-31T21:00:56.422Z,27.45
2018-12-31T21:03:26.666Z,25.23
2018-12-31T21:05:56.847Z,25.10
2018-12-31T21:08:27.041Z,23.45
2018-12-31T21:10:57.191Z,24.92
2018-12-31T21:13:27.412Z,26.62
2018-12-31T21:15:57.589Z,26.25
2018-12-31T21:18:28.102Z,30.43
2018-12-31T21:20:58.259Z,34.63
2018-12-31T21:23:28.544Z,35.08
2018-12-31T21:25:58.737Z,34.35
2018-12-31T21:28:29.000Z,35.48
2018-12-31T21:31:01.482Z,37.30
2018-12-31T21:33:31.782Z,31.93
2018-12-31T21:36:02.024Z,30.60
2018-12-31T21:38:32.253Z,31.55
2018-12-31T21:41:02.743Z,34.35
2018-12-31T21:43:33.002Z,35.65
2018-12-31T21:46:03.260Z,35.08
2018-12-31T21:48:33.548Z,35.83
2018-12-31T21:51:03.677Z,32.33
2018-12-31T21:53:34.182Z,31.00
2018-12-31T21:56:04.525Z,28.42
2018-12-31T21:58:36.274Z,31.95
2018-12-31T22:01:06.494Z,29.07
2018-12-31T22:03:36.745Z,28.23
2018-12-31T22:06:07.286Z,27.73
2018-12-31T22:08:37.564Z,24.70
2018-12-31T22:11:07.776Z,22.93
2018-12-31T22:13:38.763Z,23.22
2018-12-31T22:16:09.311Z,23.32
2018-12-31T22:18:39.611Z,26.40
2018-12-31T22:21:09.911Z,26.12
2018-12-31T22:23:40.229Z,26.20
2018-12-31T22:26:10.618Z,27.02
2018-12-31T22:28:40.823Z,28.00
2018-12-31T22:31:11.039Z,28.23
2018-12-31T22:33:41.234Z,24.52
2018-12-31T22:36:11.939Z,23.55
2018-12-31T22:38:42.739Z,22.27
2018-12-31T22:41:13.159Z,20.62
2018-12-31T22:43:43.411Z,19.10
2018-12-31T22:46:14.484Z,18.62
2018-12-31T22:49:03.882Z,21.00
2018-12-31T22:51:34.135Z,21.87
2018-12-31T22:54:04.372Z,22.62
2018-12-31T22:56:34.943Z,20.62
2018-12-31T22:59:05.270Z,21.00
2018-12-31T23:01:35.646Z,47.48
2018-12-31T23:04:07.734Z,67.80
2018-12-31T23:06:38.926Z,39.85
2018-12-31T23:09:14.227Z,80.38
2018-12-31T23:11:45.371Z,161.05
2018-12-31T23:14:16.062Z,232.07
2018-12-31T23:16:52.795Z,244.90
2018-12-31T23:19:24.782Z,225.07
2018-12-31T23:21:56.603Z,226.77
2018-12-31T23:24:27.223Z,243.20
2018-12-31T23:27:02.117Z,216.42
2018-12-31T23:29:35.340Z,162.03
2018-12-31T23:32:07.278Z,158.72
2018-12-31T23:34:38.496Z,158.10
2018-12-31T23:37:08.873Z,157.65
2018-12-31T23:39:39.746Z,160.28
2018-12-31T23:42:13.014Z,149.02
2018-12-31T23:44:52.640Z,135.68
2018-12-31T23:47:19.881Z,102.53
2018-12-31T23:49:51.671Z,83.70
2018-12-31T23:52:24.746Z,81.22
2018-12-31T23:54:56.221Z,83.92
2018-12-31T23:57:30.886Z,69.77
